createdAt,value
2023-08-12T00:01:51.603Z,4.60
2023-08-12T00:04:19.210Z,4.78
2023-08-12T00:06:47.755Z,8.50
2023-08-12T00:09:16.464Z,6.78
2023-08-12T00:11:44.058Z,6.32
2023-08-12T00:14:12.264Z,7.30
2023-08-12T00:16:39.911Z,4.40
2023-08-12T00:19:09.879Z,5.45
2023-08-12T00:21:38.007Z,6.78
2023-08-12T00:24:06.105Z,7.85
2023-08-12T00:26:33.680Z,5.83
2023-08-12T00:29:01.421Z,5.18
2023-08-12T00:31:29.219Z,8.55
2023-08-12T00:33:57.431Z,6.22
2023-08-12T00:36:25.403Z,9.60
2023-08-12T00:38:53.063Z,5.32
2023-08-12T00:41:20.642Z,8.13
2023-08-12T00:43:48.290Z,7.72
2023-08-12T00:46:16.283Z,9.20
2023-08-12T00:48:43.982Z,5.72
2023-08-12T00:51:11.716Z,6.75
2023-08-12T00:53:40.756Z,5.13
2023-08-12T00:56:09.019Z,7.13
2023-08-12T00:58:36.721Z,6.03
2023-08-12T01:01:05.172Z,5.27
2023-08-12T01:03:33.053Z,44.75
2023-08-12T01:06:01.282Z,100.05
2023-08-12T01:08:32.112Z,117.63
2023-08-12T01:11:27.232Z,136.98
2023-08-12T01:14:18.970Z,12.98
2023-08-12T01:16:50.909Z,6.25
2023-08-12T01:19:37.849Z,39.35
2023-08-12T01:22:10.346Z,32.45
2023-08-12T01:24:41.140Z,6.13
2023-08-12T01:27:10.858Z,4.30
2023-08-12T01:29:42.448Z,5.40
2023-08-12T01:32:20.817Z,517.70
2023-08-12T01:35:07.862Z,393.85
2023-08-12T01:37:37.980Z,39.78
2023-08-12T01:40:07.607Z,7.90
2023-08-12T01:42:35.674Z,6.67
2023-08-12T01:45:04.096Z,5.68
2023-08-12T01:47:32.209Z,4.43
2023-08-12T01:50:00.111Z,6.65
2023-08-12T01:52:28.759Z,5.88
2023-08-12T01:54:56.620Z,6.18
2023-08-12T01:57:24.201Z,8.30
2023-08-12T01:59:53.274Z,16.80
2023-08-12T02:02:21.014Z,9.73
2023-08-12T02:04:48.659Z,11.65
2023-08-12T02:07:16.344Z,7.20
2023-08-12T02:09:44.322Z,9.07
2023-08-12T02:12:12.582Z,9.25
2023-08-12T02:14:40.242Z,16.42
2023-08-12T02:17:08.378Z,19.77
2023-08-12T02:19:37.431Z,25.83
2023-08-12T02:22:06.072Z,32.15
2023-08-12T02:24:34.179Z,13.02
2023-08-12T02:27:02.251Z,6.97
2023-08-12T02:29:29.855Z,17.23
2023-08-12T02:31:57.955Z,7.60
2023-08-12T02:34:25.615Z,18.02
2023-08-12T02:36:53.194Z,20.92
2023-08-12T02:39:20.878Z,26.70
2023-08-12T02:41:48.876Z,24.98
2023-08-12T02:44:16.982Z,35.88
2023-08-12T02:46:44.754Z,72.35
2023-08-12T02:49:12.896Z,91.03
2023-08-12T02:51:40.551Z,61.28
2023-08-12T02:54:08.593Z,52.83
2023-08-12T02:56:36.436Z,43.47
2023-08-12T02:59:04.625Z,77.15
2023-08-12T03:01:32.322Z,74.53
2023-08-12T03:04:00.597Z,122.18
2023-08-12T03:06:28.489Z,140.93
2023-08-12T03:08:56.879Z,80.75
2023-08-12T03:11:24.763Z,71.88
2023-08-12T03:13:53.152Z,257.20
2023-08-12T03:16:21.273Z,329.50
2023-08-12T03:18:49.005Z,343.63
2023-08-12T03:21:17.434Z,244.82
2023-08-12T03:23:45.825Z,58.47
2023-08-12T03:26:15.460Z,5.63
2023-08-12T03:28:43.451Z,8.43
2023-08-12T03:31:15.002Z,10.73
2023-08-12T03:33:43.691Z,8.23
2023-08-12T03:36:11.335Z,10.53
2023-08-12T03:38:39.104Z,5.70
2023-08-12T03:41:09.553Z,10.43
2023-08-12T03:43:38.904Z,47.25
2023-08-12T03:46:07.914Z,125.77
2023-08-12T03:48:35.613Z,4.63
2023-08-12T03:51:03.710Z,5.78
2023-08-12T03:53:31.486Z,8.95
2023-08-12T03:55:59.573Z,5.75
2023-08-12T03:58:28.490Z,8.77
2023-08-12T04:00:56.449Z,6.25
2023-08-12T04:03:24.443Z,5.88
2023-08-12T04:05:53.715Z,6.53
2023-08-12T04:08:24.449Z,7.47
2023-08-12T04:10:53.213Z,6.82
2023-08-12T04:13:20.839Z,33.95
2023-08-12T04:15:52.300Z,8.23
2023-08-12T04:18:20.958Z,14.90
2023-08-12T04:20:50.306Z,49.75
2023-08-12T04:23:19.140Z,11.98
2023-08-12T04:25:48.680Z,59.85
2023-08-12T04:28:17.773Z,13.47
2023-08-12T04:30:48.642Z,67.07
2023-08-12T04:33:18.275Z,26.60
2023-08-12T04:35:47.411Z,14.25
2023-08-12T04:38:17.196Z,9.10
2023-08-12T04:40:45.544Z,8.60
2023-08-12T04:43:14.741Z,7.50
2023-08-12T04:45:47.089Z,10.50
2023-08-12T04:48:15.936Z,9.03
2023-08-12T04:50:44.399Z,11.25
2023-08-12T04:53:12.499Z,8.90
2023-08-12T04:55:41.105Z,20.33
2023-08-12T04:58:09.718Z,7.00
2023-08-12T05:00:38.421Z,41.30
2023-08-12T05:03:06.109Z,7.70
2023-08-12T05:05:33.772Z,9.13
2023-08-12T05:08:01.953Z,8.52
2023-08-12T05:10:29.843Z,7.35
2023-08-12T05:12:59.467Z,86.03
2023-08-12T05:15:27.788Z,10.77
2023-08-12T05:17:56.539Z,68.32
2023-08-12T05:20:25.082Z,29.77
2023-08-12T05:22:53.212Z,22.42
2023-08-12T05:25:20.827Z,8.85
2023-08-12T05:27:48.435Z,288.95
2023-08-12T05:30:16.054Z,11.03
2023-08-12T05:32:44.502Z,8.20
2023-08-12T05:35:12.662Z,7.15
2023-08-12T05:37:40.814Z,5.40
2023-08-12T05:40:10.694Z,9.93
2023-08-12T05:42:38.319Z,10.55
2023-08-12T05:45:08.580Z,6.20
2023-08-12T05:47:36.658Z,7.95
2023-08-12T05:50:05.112Z,7.80
2023-08-12T05:52:32.823Z,6.05
2023-08-12T05:55:00.829Z,9.43
2023-08-12T05:57:29.821Z,6.90
2023-08-12T05:59:58.017Z,9.73
2023-08-12T06:02:26.870Z,8.68
2023-08-12T06:04:54.570Z,7.75
2023-08-12T06:07:22.434Z,5.60
2023-08-12T06:09:51.954Z,5.88
2023-08-12T06:12:19.605Z,7.68
2023-08-12T06:14:47.431Z,7.50
2023-08-12T06:17:14.955Z,9.57
2023-08-12T06:19:43.005Z,6.43
2023-08-12T06:22:11.175Z,6.18
2023-08-12T06:24:39.501Z,8.88
2023-08-12T06:27:07.196Z,7.60
2023-08-12T06:29:34.805Z,7.05
2023-08-12T06:32:02.379Z,7.03
2023-08-12T06:34:29.941Z,8.23
2023-08-12T06:36:57.644Z,6.57
2023-08-12T06:39:26.125Z,6.63
2023-08-12T06:41:54.170Z,9.47
2023-08-12T06:44:21.874Z,6.20
2023-08-12T06:46:49.467Z,7.88
2023-08-12T06:49:17.677Z,7.78
2023-08-12T06:51:45.215Z,4.88
2023-08-12T06:54:13.258Z,7.70
2023-08-12T06:56:40.868Z,6.32
2023-08-12T06:59:08.829Z,7.38
2023-08-12T07:01:36.456Z,8.80
2023-08-12T07:04:04.567Z,6.43
2023-08-12T07:06:32.221Z,6.32
2023-08-12T07:08:59.912Z,9.65
2023-08-12T07:11:27.495Z,9.23
2023-08-12T07:13:55.485Z,8.20
2023-08-12T07:16:23.059Z,10.00
2023-08-12T07:18:51.011Z,4.60
2023-08-12T07:21:18.995Z,12.63
2023-08-12T07:23:58.477Z,7.70
2023-08-12T07:26:31.617Z,9.87
2023-08-12T07:28:59.225Z,6.70
2023-08-12T07:31:27.351Z,4.20
2023-08-12T07:33:55.115Z,9.57
2023-08-12T07:36:23.554Z,8.25
2023-08-12T07:38:51.181Z,7.53
2023-08-12T07:41:19.274Z,5.32
2023-08-12T07:43:46.891Z,6.53
2023-08-12T07:46:14.888Z,6.10
2023-08-12T07:48:42.451Z,5.03
2023-08-12T07:51:10.463Z,5.50
2023-08-12T07:53:38.433Z,10.67
2023-08-12T07:56:06.128Z,4.78
2023-08-12T07:58:34.087Z,5.07
2023-08-12T08:01:01.623Z,5.07
2023-08-12T08:03:29.420Z,6.65
2023-08-12T08:05:57.466Z,3.00
2023-08-12T08:08:25.481Z,6.00
2023-08-12T08:10:53.097Z,5.20
2023-08-12T08:13:20.626Z,5.95
2023-08-12T08:15:48.465Z,6.43
2023-08-12T08:18:16.114Z,3.63
2023-08-12T08:20:45.903Z,5.10
2023-08-12T08:23:14.166Z,7.75
2023-08-12T08:25:42.397Z,7.22
2023-08-12T08:28:10.385Z,9.43
2023-08-12T08:30:38.185Z,5.25
2023-08-12T08:33:06.598Z,4.10
2023-08-12T08:35:34.255Z,8.98
2023-08-12T08:38:01.926Z,6.87
2023-08-12T08:40:29.567Z,5.78
2023-08-12T08:43:01.979Z,3.53
2023-08-12T08:45:33.103Z,4.35
2023-08-12T08:48:02.777Z,6.50
2023-08-12T08:50:32.458Z,4.60
2023-08-12T08:53:04.167Z,9.65
2023-08-12T08:55:32.235Z,5.70
2023-08-12T08:58:05.486Z,5.10
2023-08-12T09:00:33.739Z,5.10
2023-08-12T09:03:03.752Z,6.00
2023-08-12T09:05:33.262Z,4.00
2023-08-12T09:08:02.925Z,7.10
2023-08-12T09:10:31.664Z,4.72
2023-08-12T09:13:00.053Z,7.20
2023-08-12T09:15:27.729Z,7.90
2023-08-12T09:17:55.458Z,7.57
2023-08-12T09:20:23.534Z,3.90
2023-08-12T09:23:01.588Z,6.05
2023-08-12T09:25:31.209Z,5.00
2023-08-12T09:28:02.940Z,4.53
2023-08-12T09:30:32.478Z,6.57
2023-08-12T09:33:05.249Z,8.43
2023-08-12T09:35:36.088Z,9.63
2023-08-12T09:38:06.507Z,7.28
2023-08-12T09:40:37.625Z,5.10
2023-08-12T09:43:05.402Z,9.05
2023-08-12T09:45:35.033Z,6.10
2023-08-12T09:48:03.748Z,6.10
2023-08-12T09:50:31.860Z,7.43
2023-08-12T09:53:02.212Z,6.18
2023-08-12T09:55:32.884Z,6.27
2023-08-12T09:58:01.336Z,6.07
2023-08-12T10:00:29.113Z,9.52
2023-08-12T10:02:56.964Z,5.07
2023-08-12T10:05:28.370Z,6.53
2023-08-12T10:07:56.693Z,6.38
2023-08-12T10:10:24.318Z,5.10
2023-08-12T10:12:52.846Z,5.22
2023-08-12T10:15:21.064Z,5.95
2023-08-12T10:17:49.984Z,5.65
2023-08-12T10:20:24.029Z,6.50
2023-08-12T10:22:52.769Z,5.70
2023-08-12T10:25:23.772Z,5.90
2023-08-12T10:27:51.431Z,3.80
2023-08-12T10:30:21.447Z,6.78
2023-08-12T10:32:49.254Z,3.88
2023-08-12T10:35:17.084Z,6.45
2023-08-12T10:37:50.749Z,5.78
2023-08-12T10:40:23.481Z,5.73
2023-08-12T10:42:51.890Z,4.15
2023-08-12T10:45:20.061Z,4.72
2023-08-12T10:48:16.533Z,3.85
2023-08-12T10:50:50.531Z,4.00
2023-08-12T10:53:30.793Z,4.32
2023-08-12T10:56:01.459Z,7.37
2023-08-12T10:58:37.224Z,8.90
2023-08-12T11:01:15.415Z,7.00
2023-08-12T11:03:44.530Z,7.50
2023-08-12T11:06:12.833Z,4.47
2023-08-12T11:08:54.674Z,6.47
2023-08-12T11:11:24.985Z,5.38
2023-08-12T11:13:57.918Z,4.70
2023-08-12T11:16:39.186Z,7.07
2023-08-12T11:19:09.329Z,5.45
2023-08-12T11:21:37.823Z,6.40
2023-08-12T11:24:05.939Z,8.45
2023-08-12T11:26:33.701Z,6.67
2023-08-12T11:29:01.457Z,7.22
2023-08-12T11:31:29.558Z,4.65
2023-08-12T11:33:57.768Z,4.60
2023-08-12T11:36:25.474Z,4.50
2023-08-12T11:38:53.134Z,5.45
2023-08-12T11:41:24.020Z,5.63
2023-08-12T11:43:51.643Z,4.57
2023-08-12T11:46:19.490Z,6.45
2023-08-12T11:48:48.378Z,5.60
2023-08-12T11:51:17.235Z,4.60
2023-08-12T11:53:45.031Z,6.90
2023-08-12T11:56:12.702Z,8.55
2023-08-12T11:58:52.384Z,5.63
2023-08-12T12:01:25.926Z,7.63
2023-08-12T12:03:54.280Z,6.22
2023-08-12T12:06:38.580Z,3.83
2023-08-12T12:09:11.445Z,6.07
2023-08-12T12:11:40.099Z,5.00
2023-08-12T12:14:09.758Z,4.60
2023-08-12T12:16:45.447Z,6.55
2023-08-12T12:19:21.776Z,3.80
2023-08-12T12:21:54.395Z,9.10
2023-08-12T12:24:22.790Z,5.10
2023-08-12T12:26:50.600Z,4.93
2023-08-12T12:29:18.642Z,4.03
2023-08-12T12:31:46.660Z,6.15
2023-08-12T12:34:15.550Z,4.57
2023-08-12T12:36:43.316Z,3.40
2023-08-12T12:39:10.918Z,4.28
2023-08-12T12:41:38.561Z,5.80
2023-08-12T12:44:07.080Z,5.20
2023-08-12T12:46:34.950Z,5.53
2023-08-12T12:49:02.982Z,3.60
2023-08-12T12:51:31.245Z,4.88
2023-08-12T12:53:59.036Z,5.40
2023-08-12T12:56:26.690Z,3.60
2023-08-12T12:58:54.227Z,4.93
2023-08-12T13:01:22.491Z,7.10
2023-08-12T13:03:50.122Z,5.45
2023-08-12T13:06:17.834Z,5.63
2023-08-12T13:08:45.508Z,8.35
2023-08-12T13:11:13.036Z,4.78
2023-08-12T13:13:40.618Z,5.15
2023-08-12T13:16:09.549Z,3.80
2023-08-12T13:18:37.348Z,4.72
2023-08-12T13:21:04.904Z,6.13
2023-08-12T13:23:32.756Z,3.75
2023-08-12T13:26:00.896Z,5.53
2023-08-12T13:28:29.179Z,7.60
2023-08-12T13:30:57.259Z,4.50
2023-08-12T13:33:24.825Z,5.63
2023-08-12T13:35:52.485Z,5.50
2023-08-12T13:38:20.718Z,5.65
2023-08-12T13:40:49.866Z,38.40
2023-08-12T13:43:17.429Z,4.03
2023-08-12T13:45:45.511Z,4.40
2023-08-12T13:48:13.138Z,6.28
2023-08-12T13:50:41.090Z,4.72
2023-08-12T13:53:09.148Z,6.25
2023-08-12T13:55:36.811Z,3.67
2023-08-12T13:58:04.595Z,3.92
2023-08-12T14:00:32.342Z,5.70
2023-08-12T14:03:00.364Z,4.80
2023-08-12T14:05:28.496Z,8.02
2023-08-12T14:07:57.039Z,4.07
2023-08-12T14:10:25.189Z,3.08
2023-08-12T14:12:53.244Z,8.75
2023-08-12T14:15:21.063Z,6.25
2023-08-12T14:17:48.738Z,3.92
2023-08-12T14:20:16.629Z,3.80
2023-08-12T14:22:47.222Z,5.75
2023-08-12T14:25:14.808Z,5.75
2023-08-12T14:27:42.758Z,5.72
2023-08-12T14:30:11.103Z,6.53
2023-08-12T14:32:39.523Z,6.20
2023-08-12T14:35:07.719Z,3.80
2023-08-12T14:37:35.864Z,3.15
2023-08-12T14:40:04.166Z,5.20
2023-08-12T14:42:31.802Z,4.32
2023-08-12T14:44:59.609Z,596.45
2023-08-12T14:47:27.673Z,2.90
2023-08-12T14:49:56.120Z,4.25
2023-08-12T14:52:24.156Z,3.13
2023-08-12T14:54:52.185Z,4.40
2023-08-12T14:57:19.912Z,6.20
2023-08-12T14:59:51.671Z,4.45
2023-08-12T15:02:26.061Z,4.00
2023-08-12T15:04:54.616Z,3.72
2023-08-12T15:07:23.231Z,4.93
2023-08-12T15:09:52.426Z,4.53
2023-08-12T15:12:20.077Z,6.20
2023-08-12T15:14:48.226Z,3.60
2023-08-12T15:17:16.469Z,4.93
2023-08-12T15:19:44.926Z,6.78
2023-08-12T15:22:12.487Z,6.57
2023-08-12T15:24:40.184Z,3.10
2023-08-12T15:27:07.771Z,8.55
2023-08-12T15:29:35.427Z,6.15
2023-08-12T15:32:04.516Z,4.90
2023-08-12T15:34:32.954Z,6.30
2023-08-12T15:37:00.616Z,4.07
2023-08-12T15:39:28.778Z,4.05
2023-08-12T15:41:56.369Z,4.65
2023-08-12T15:44:24.420Z,3.70
2023-08-12T15:46:52.028Z,4.68
2023-08-12T15:49:20.140Z,4.43
2023-08-12T15:51:47.729Z,7.18
2023-08-12T15:54:15.273Z,4.65
2023-08-12T15:56:44.375Z,4.00
2023-08-12T15:59:11.987Z,4.13
2023-08-12T16:01:40.104Z,5.05
2023-08-12T16:04:08.154Z,4.67
2023-08-12T16:06:35.689Z,5.68
2023-08-12T16:09:16.872Z,6.13
2023-08-12T16:11:45.853Z,4.07
2023-08-12T16:14:13.833Z,3.67
2023-08-12T16:16:41.760Z,5.10
2023-08-12T16:19:09.398Z,3.17
2023-08-12T16:21:37.415Z,3.30
2023-08-12T16:24:05.219Z,6.50
2023-08-12T16:26:32.832Z,4.37
2023-08-12T16:29:01.293Z,5.68
2023-08-12T16:31:31.572Z,4.55
2023-08-12T16:33:59.272Z,7.10
2023-08-12T16:36:26.827Z,6.13
2023-08-12T16:38:54.468Z,6.85
2023-08-12T16:41:22.126Z,3.97
2023-08-12T16:43:49.790Z,3.55
2023-08-12T16:46:17.492Z,4.85
2023-08-12T16:48:45.521Z,5.82
2023-08-12T16:51:13.680Z,4.93
2023-08-12T16:53:41.467Z,5.38
2023-08-12T16:56:09.012Z,4.47
2023-08-12T16:58:36.733Z,5.63
2023-08-12T17:01:05.137Z,6.05
2023-08-12T17:03:32.804Z,4.45
2023-08-12T17:06:01.582Z,4.30
2023-08-12T17:08:30.522Z,3.58
2023-08-12T17:10:58.141Z,4.32
2023-08-12T17:13:25.698Z,4.00
2023-08-12T17:15:53.301Z,4.90
2023-08-12T17:18:21.329Z,6.35
2023-08-12T17:20:49.314Z,4.03
2023-08-12T17:23:16.939Z,12.13
2023-08-12T17:25:44.708Z,7.97
2023-08-12T17:28:12.549Z,5.57
2023-08-12T17:30:40.223Z,5.82
2023-08-12T17:33:07.846Z,8.40
2023-08-12T17:35:35.477Z,7.63
2023-08-12T17:38:03.183Z,8.80
2023-08-12T17:40:31.211Z,255.32
2023-08-12T17:42:58.817Z,3.65
2023-08-12T17:45:26.594Z,4.20
2023-08-12T17:47:59.979Z,7.60
2023-08-12T17:50:28.642Z,6.60
2023-08-12T17:52:57.183Z,232.43
2023-08-12T17:55:25.133Z,331.23
2023-08-12T17:57:53.484Z,200.98
2023-08-12T18:00:22.955Z,68.38
2023-08-12T18:02:50.563Z,10.35
2023-08-12T18:05:18.356Z,180.60
2023-08-12T18:07:47.439Z,225.63
2023-08-12T18:10:15.515Z,145.20
2023-08-12T18:12:43.136Z,98.23
2023-08-12T18:15:10.798Z,211.73
2023-08-12T18:17:38.963Z,118.55
2023-08-12T18:20:07.255Z,8.50
2023-08-12T18:22:34.754Z,10.38
2023-08-12T18:25:02.345Z,110.35
2023-08-12T18:27:30.620Z,42.80
2023-08-12T18:29:58.216Z,7.93
2023-08-12T18:32:28.418Z,7.88
2023-08-12T18:34:57.268Z,7.73
2023-08-12T18:37:24.838Z,113.35
2023-08-12T18:39:52.630Z,5.43
2023-08-12T18:42:20.363Z,6.30
2023-08-12T18:44:48.438Z,9.90
2023-08-12T18:47:17.792Z,6.25
2023-08-12T18:49:45.601Z,119.60
2023-08-12T18:52:14.871Z,89.22
2023-08-12T18:54:43.065Z,152.23
2023-08-12T18:57:10.701Z,129.43
2023-08-12T18:59:38.805Z,92.22
2023-08-12T19:02:07.128Z,208.63
2023-08-12T19:04:35.292Z,59.47
2023-08-12T19:07:03.041Z,179.65
2023-08-12T19:09:31.224Z,274.75
2023-08-12T19:11:58.796Z,399.83
2023-08-12T19:14:26.433Z,499.92
2023-08-12T19:16:55.129Z,655.13
2023-08-12T19:19:23.175Z,766.42
2023-08-12T19:21:50.746Z,672.67
2023-08-12T19:24:18.810Z,796.55
2023-08-12T19:26:46.380Z,827.33
2023-08-12T19:29:14.457Z,893.70
2023-08-12T19:31:42.143Z,1016.47
2023-08-12T19:34:10.283Z,999.42
2023-08-12T19:36:37.905Z,863.17
2023-08-12T19:39:06.207Z,994.35
2023-08-12T19:41:33.854Z,1009.03
2023-08-12T19:44:01.414Z,960.15
2023-08-12T19:46:29.901Z,965.63
2023-08-12T19:48:59.314Z,964.28
2023-08-12T19:51:26.934Z,1002.63
2023-08-12T19:53:54.646Z,1011.17
2023-08-12T19:56:22.555Z,1054.00
2023-08-12T19:58:50.649Z,961.07
2023-08-12T20:01:18.272Z,916.00
2023-08-12T20:03:45.955Z,918.00
2023-08-12T20:06:13.583Z,973.05
2023-08-12T20:08:41.595Z,940.07
2023-08-12T20:11:09.262Z,881.13
2023-08-12T20:13:37.999Z,870.22
2023-08-12T20:16:05.617Z,907.00
2023-08-12T20:18:33.207Z,961.20
2023-08-12T20:21:01.033Z,886.42
2023-08-12T20:23:29.044Z,824.05
2023-08-12T20:25:57.037Z,906.55
2023-08-12T20:28:25.465Z,967.65
2023-08-12T20:30:53.499Z,951.13
2023-08-12T20:33:21.228Z,849.65
2023-08-12T20:35:49.009Z,889.97
2023-08-12T20:38:19.373Z,879.90
2023-08-12T20:40:47.076Z,911.40
2023-08-12T20:43:15.123Z,902.83
2023-08-12T20:45:43.138Z,911.17
2023-08-12T20:48:11.125Z,919.08
2023-08-12T20:50:38.684Z,863.55
2023-08-12T20:53:06.303Z,998.95
2023-08-12T20:55:33.949Z,1057.90
2023-08-12T20:58:01.920Z,1073.82
2023-08-12T21:00:30.243Z,1099.80
2023-08-12T21:02:58.317Z,1181.25
2023-08-12T21:05:26.386Z,1000.28
2023-08-12T21:07:53.978Z,1163.38
2023-08-12T21:10:21.823Z,1127.80
2023-08-12T21:12:49.430Z,1126.38
2023-08-12T21:15:16.978Z,973.80
2023-08-12T21:17:44.561Z,870.88
2023-08-12T21:20:12.535Z,937.13
2023-08-12T21:22:40.305Z,911.87
2023-08-12T21:25:08.220Z,861.97
2023-08-12T21:27:36.250Z,942.40
2023-08-12T21:30:04.528Z,926.67
2023-08-12T21:32:32.433Z,1088.10
2023-08-12T21:35:00.599Z,1060.90
2023-08-12T21:37:28.583Z,988.50
2023-08-12T21:39:56.525Z,921.73
2023-08-12T21:42:24.177Z,967.77
2023-08-12T21:44:52.215Z,912.05
2023-08-12T21:47:19.777Z,906.90
2023-08-12T21:49:47.828Z,896.50
2023-08-12T21:52:15.836Z,966.05
2023-08-12T21:54:44.476Z,913.95
2023-08-12T21:57:12.146Z,912.67
2023-08-12T21:59:40.249Z,915.45
2023-08-12T22:02:08.763Z,789.30
2023-08-12T22:04:36.277Z,900.63
2023-08-12T22:07:05.633Z,915.85
2023-08-12T22:09:35.414Z,906.83
2023-08-12T22:12:03.093Z,911.23
2023-08-12T22:14:31.281Z,960.80
2023-08-12T22:16:59.371Z,860.47
2023-08-12T22:19:29.725Z,892.35
2023-08-12T22:22:05.401Z,941.28
2023-08-12T22:24:41.149Z,900.57
2023-08-12T22:27:09.238Z,966.33
2023-08-12T22:29:37.279Z,891.17
2023-08-12T22:32:05.070Z,898.45
2023-08-12T22:34:32.665Z,858.25
2023-08-12T22:37:00.327Z,879.30
2023-08-12T22:39:27.941Z,884.63
2023-08-12T22:41:56.383Z,852.72
2023-08-12T22:44:23.942Z,863.85
2023-08-12T22:46:51.577Z,892.33
2023-08-12T22:49:20.089Z,878.47
2023-08-12T22:51:47.687Z,685.45
2023-08-12T22:54:16.286Z,724.00
2023-08-12T22:56:43.830Z,710.00
2023-08-12T22:59:11.593Z,713.08
2023-08-12T23:01:39.158Z,711.28
2023-08-12T23:04:07.677Z,664.05
2023-08-12T23:06:35.272Z,685.67
2023-08-12T23:09:02.984Z,709.88
2023-08-12T23:11:31.001Z,763.10
2023-08-12T23:13:58.555Z,772.10
2023-08-12T23:16:26.648Z,794.93
2023-08-12T23:18:54.275Z,748.75
2023-08-12T23:21:21.870Z,763.10
2023-08-12T23:23:49.598Z,752.78
2023-08-12T23:26:18.297Z,812.50
2023-08-12T23:28:45.937Z,751.63
2023-08-12T23:31:13.483Z,725.78
2023-08-12T23:33:41.153Z,770.65
2023-08-12T23:36:09.723Z,732.50
2023-08-12T23:38:38.282Z,728.88
2023-08-12T23:41:05.811Z,733.07
2023-08-12T23:43:33.656Z,734.70
2023-08-12T23:46:01.544Z,730.90
2023-08-12T23:48:29.190Z,766.58
2023-08-12T23:50:57.030Z,784.85
2023-08-12T23:53:25.411Z,699.00
2023-08-12T23:55:53.097Z,684.08
2023-08-12T23:58:20.775Z,817.25
